createdAt,value
2023-05-20T00:01:07.327Z,100879.70
2023-05-20T00:03:34.394Z,100878.55
2023-05-20T00:06:01.363Z,100880.34
2023-05-20T00:08:28.152Z,100875.81
2023-05-20T00:10:54.888Z,100875.36
2023-05-20T00:13:21.659Z,100870.59
2023-05-20T00:15:48.465Z,100865.73
2023-05-20T00:18:15.331Z,100866.70
2023-05-20T00:20:42.343Z,100865.06
2023-05-20T00:23:09.099Z,100863.15
2023-05-20T00:25:36.058Z,100861.39
2023-05-20T00:28:03.137Z,100862.41
2023-05-20T00:30:29.930Z,100864.10
2023-05-20T00:32:56.764Z,100859.83
2023-05-20T00:35:24.323Z,100860.04
2023-05-20T00:37:51.091Z,100853.91
2023-05-20T00:40:18.253Z,100858.73
2023-05-20T00:42:45.098Z,100859.00
2023-05-20T00:45:11.994Z,100864.89
2023-05-20T00:47:39.772Z,100864.61
2023-05-20T00:50:08.501Z,100863.39
2023-05-20T00:52:35.391Z,100865.15
2023-05-20T00:55:02.253Z,100863.27
2023-05-20T00:57:29.330Z,100867.71
2023-05-20T00:59:56.177Z,100866.34
2023-05-20T01:02:24.250Z,100866.20
2023-05-20T01:04:51.177Z,100871.42
2023-05-20T01:07:18.299Z,100871.22
2023-05-20T01:09:46.820Z,100866.70
2023-05-20T01:12:29.645Z,100865.25
2023-05-20T01:15:02.313Z,100864.20
2023-05-20T01:17:31.264Z,100860.69
2023-05-20T01:19:58.528Z,100858.98
2023-05-20T01:22:26.924Z,100857.47
2023-05-20T01:24:54.053Z,100856.65
2023-05-20T01:27:22.562Z,100853.02
2023-05-20T01:29:52.729Z,100855.09
2023-05-20T01:32:33.201Z,100853.67
2023-05-20T01:35:00.306Z,100856.92
2023-05-20T01:37:27.679Z,100857.23
2023-05-20T01:39:54.743Z,100857.56
2023-05-20T01:42:21.799Z,100860.95
2023-05-20T01:44:48.587Z,100860.16
2023-05-20T01:47:15.394Z,100863.77
2023-05-20T01:49:42.248Z,100864.05
2023-05-20T01:52:09.166Z,100869.87
2023-05-20T01:54:36.379Z,100870.27
2023-05-20T01:57:03.253Z,100873.48
2023-05-20T01:59:30.241Z,100870.97
2023-05-20T02:01:57.158Z,100869.02
2023-05-20T02:04:24.028Z,100870.95
2023-05-20T02:06:51.073Z,100873.25
2023-05-20T02:09:18.979Z,100868.08
2023-05-20T02:11:46.289Z,100869.70
2023-05-20T02:14:13.372Z,100872.56
2023-05-20T02:16:41.313Z,100871.52
2023-05-20T02:19:12.986Z,100871.03
2023-05-20T02:21:41.367Z,100873.30
2023-05-20T02:24:10.194Z,100872.73
2023-05-20T02:26:37.225Z,100872.92
2023-05-20T02:29:03.997Z,100874.01
2023-05-20T02:31:31.288Z,100880.27
2023-05-20T02:33:58.214Z,100876.35
2023-05-20T02:36:25.164Z,100876.41
2023-05-20T02:38:54.328Z,100873.18
2023-05-20T02:41:21.729Z,100870.63
2023-05-20T02:43:48.721Z,100873.51
2023-05-20T02:46:16.145Z,100884.66
2023-05-20T02:48:43.042Z,100883.98
2023-05-20T02:51:10.080Z,100882.22
2023-05-20T02:53:37.014Z,100882.23
2023-05-20T02:56:04.781Z,100884.02
2023-05-20T02:58:31.571Z,100884.02
2023-05-20T03:00:58.847Z,100882.33
2023-05-20T03:03:27.169Z,100884.55
2023-05-20T03:05:54.255Z,100890.08
2023-05-20T03:08:22.620Z,100887.16
2023-05-20T03:10:50.952Z,100893.51
2023-05-20T03:13:17.762Z,100897.41
2023-05-20T03:15:46.198Z,100899.30
2023-05-20T03:18:14.042Z,100900.05
2023-05-20T03:20:41.756Z,100900.70
2023-05-20T03:23:09.151Z,100903.48
2023-05-20T03:25:37.351Z,100903.49
2023-05-20T03:28:04.718Z,100905.22
2023-05-20T03:30:31.624Z,100906.15
2023-05-20T03:32:58.825Z,100906.14
2023-05-20T03:35:26.301Z,100910.35
2023-05-20T03:37:53.404Z,100904.45
2023-05-20T03:40:21.933Z,100903.67
2023-05-20T03:42:50.938Z,100902.70
2023-05-20T03:45:18.973Z,100904.80
2023-05-20T03:47:54.321Z,100902.40
2023-05-20T03:50:22.134Z,100900.73
2023-05-20T03:52:49.226Z,100901.59
2023-05-20T03:55:17.388Z,100902.86
2023-05-20T03:57:44.160Z,100903.08
2023-05-20T04:00:12.239Z,100907.98
2023-05-20T04:02:43.172Z,100908.46
2023-05-20T04:05:10.795Z,100910.85
2023-05-20T04:07:38.413Z,100918.98
2023-05-20T04:10:07.560Z,100917.46
2023-05-20T04:12:36.094Z,100921.77
2023-05-20T04:15:03.380Z,100925.95
2023-05-20T04:17:37.721Z,100922.37
2023-05-20T04:20:07.315Z,100927.25
2023-05-20T04:22:35.531Z,100921.91
2023-05-20T04:25:04.752Z,100919.08
2023-05-20T04:27:33.740Z,100920.91
2023-05-20T04:30:02.397Z,100923.43
2023-05-20T04:32:31.120Z,100921.66
2023-05-20T04:34:58.287Z,100924.93
2023-05-20T04:37:25.397Z,100925.15
2023-05-20T04:39:52.659Z,100928.77
2023-05-20T04:42:21.668Z,100935.61
2023-05-20T04:44:48.955Z,100935.61
2023-05-20T04:47:15.838Z,100934.16
2023-05-20T04:49:42.825Z,100936.25
2023-05-20T04:52:09.954Z,100936.28
2023-05-20T04:54:40.376Z,100935.39
2023-05-20T04:57:07.674Z,100935.23
2023-05-20T04:59:35.158Z,100931.88
2023-05-20T05:02:02.901Z,100933.07
2023-05-20T05:04:29.813Z,100929.45
2023-05-20T05:06:57.018Z,100930.39
2023-05-20T05:09:25.404Z,100930.80
2023-05-20T05:11:52.851Z,100929.27
2023-05-20T05:14:22.899Z,100929.41
2023-05-20T05:16:52.394Z,100935.15
2023-05-20T05:19:20.510Z,100927.63
2023-05-20T05:21:48.237Z,100932.16
2023-05-20T05:24:15.059Z,100935.52
2023-05-20T05:26:41.986Z,100938.29
2023-05-20T05:29:11.631Z,100936.40
2023-05-20T05:31:38.801Z,100937.23
2023-05-20T05:34:08.066Z,100940.17
2023-05-20T05:36:40.261Z,100941.75
2023-05-20T05:39:07.398Z,100943.70
2023-05-20T05:41:35.054Z,100941.10
2023-05-20T05:44:02.008Z,100943.30
2023-05-20T05:46:28.996Z,100942.54
2023-05-20T05:48:55.990Z,100954.60
2023-05-20T05:51:24.992Z,100953.21
2023-05-20T05:53:52.624Z,100953.48
2023-05-20T05:56:19.776Z,100949.03
2023-05-20T05:58:48.415Z,100952.38
2023-05-20T06:01:15.755Z,100951.18
2023-05-20T06:03:42.741Z,100947.24
2023-05-20T06:06:09.677Z,100945.52
2023-05-20T06:08:36.636Z,100944.63
2023-05-20T06:11:03.658Z,100941.90
2023-05-20T06:13:30.945Z,100943.02
2023-05-20T06:15:58.270Z,100945.76
2023-05-20T06:18:26.189Z,100944.01
2023-05-20T06:21:00.057Z,100941.88
2023-05-20T06:23:28.691Z,100936.23
2023-05-20T06:25:59.476Z,100935.45
2023-05-20T06:28:27.214Z,100935.49
2023-05-20T06:30:57.358Z,100929.89
2023-05-20T06:36:08.721Z,100944.54
2023-05-20T06:38:35.462Z,100944.67
2023-05-20T06:41:02.563Z,100942.78
2023-05-20T06:43:32.224Z,100942.09
2023-05-20T06:46:09.365Z,100935.79
2023-05-20T06:48:45.118Z,100940.36
2023-05-20T06:51:12.467Z,100938.97
2023-05-20T06:53:39.403Z,100936.25
2023-05-20T06:56:06.204Z,100927.08
2023-05-20T06:58:33.149Z,100924.63
2023-05-20T07:01:00.180Z,100928.59
2023-05-20T07:03:27.094Z,100933.02
2023-05-20T07:05:54.371Z,100933.94
2023-05-20T07:08:22.862Z,100936.69
2023-05-20T07:10:49.520Z,100935.63
2023-05-20T07:13:23.456Z,100940.30
2023-05-20T07:15:51.102Z,100938.96
2023-05-20T07:18:17.709Z,100935.66
2023-05-20T07:20:49.906Z,100938.41
2023-05-20T07:23:40.139Z,100936.25
2023-05-20T07:26:06.861Z,100936.54
2023-05-20T07:28:35.996Z,100927.60
2023-05-20T07:31:03.995Z,100935.33
2023-05-20T07:33:33.358Z,100936.79
2023-05-20T07:36:00.077Z,100934.75
2023-05-20T07:38:26.857Z,100936.80
2023-05-20T07:41:00.235Z,100940.20
2023-05-20T07:43:28.842Z,100938.52
2023-05-20T07:45:56.271Z,100941.14
2023-05-20T07:48:23.056Z,100942.80
2023-05-20T07:50:50.043Z,100941.34
2023-05-20T07:53:18.005Z,100941.30
2023-05-20T07:55:44.760Z,100937.90
2023-05-20T07:58:12.369Z,100933.25
2023-05-20T08:00:40.413Z,100934.90
2023-05-20T08:03:07.568Z,100934.70
2023-05-20T08:05:45.698Z,100931.02
2023-05-20T08:08:13.099Z,100928.94
2023-05-20T08:10:47.725Z,100933.02
2023-05-20T08:13:14.785Z,100935.22
2023-05-20T08:15:42.135Z,100931.53
2023-05-20T08:18:08.864Z,100930.70
2023-05-20T08:20:36.100Z,100929.21
2023-05-20T08:23:02.839Z,100925.30
2023-05-20T08:25:30.079Z,100926.13
2023-05-20T08:27:57.173Z,100930.87
2023-05-20T08:30:24.574Z,100925.75
2023-05-20T08:32:51.498Z,100926.98
2023-05-20T08:35:20.455Z,100928.10
2023-05-20T08:37:47.856Z,100924.15
2023-05-20T08:40:14.718Z,100917.16
2023-05-20T08:42:43.150Z,100918.42
2023-05-20T08:45:10.728Z,100919.46
2023-05-20T08:47:40.226Z,100916.17
2023-05-20T08:50:07.624Z,100913.63
2023-05-20T08:52:34.784Z,100913.43
2023-05-20T08:55:01.372Z,100915.14
2023-05-20T08:57:28.443Z,100913.08
2023-05-20T08:59:56.693Z,100910.44
2023-05-20T09:02:23.455Z,100909.52
2023-05-20T09:04:50.126Z,100912.42
2023-05-20T09:07:28.357Z,100915.52
2023-05-20T09:09:55.083Z,100917.65
2023-05-20T09:12:23.030Z,100916.67
2023-05-20T09:14:50.598Z,100917.42
2023-05-20T09:17:17.835Z,100913.70
2023-05-20T09:19:44.579Z,100916.63
2023-05-20T09:22:11.500Z,100916.97
2023-05-20T09:24:38.068Z,100918.79
2023-05-20T09:27:04.727Z,100915.73
2023-05-20T09:29:32.935Z,100916.23
2023-05-20T09:32:01.450Z,100913.86
2023-05-20T09:34:28.622Z,100917.00
2023-05-20T09:36:55.266Z,100918.63
2023-05-20T09:39:25.463Z,100909.27
2023-05-20T09:41:56.058Z,100912.78
2023-05-20T09:44:23.221Z,100912.80
2023-05-20T09:46:50.234Z,100915.17
2023-05-20T09:49:17.401Z,100916.24
2023-05-20T09:51:44.045Z,100916.64
2023-05-20T09:54:11.844Z,100907.98
2023-05-20T09:56:40.524Z,100908.98
2023-05-20T09:59:07.230Z,100913.02
2023-05-20T10:01:34.367Z,100912.45
2023-05-20T10:04:01.282Z,100917.13
2023-05-20T10:06:58.391Z,100919.64
2023-05-20T10:09:56.221Z,100913.82
2023-05-20T10:12:49.235Z,100914.61
2023-05-20T10:15:26.724Z,100903.61
2023-05-20T10:18:44.313Z,100909.40
2023-05-20T10:21:16.204Z,100900.13
2023-05-20T10:23:42.861Z,100902.42
2023-05-20T10:26:09.600Z,100900.02
2023-05-20T10:28:37.541Z,100893.98
2023-05-20T10:31:18.455Z,100893.99
2023-05-20T10:33:45.489Z,100893.46
2023-05-20T10:36:26.358Z,100886.55
2023-05-20T10:38:54.644Z,100889.23
2023-05-20T10:41:24.153Z,100885.71
2023-05-20T10:44:01.740Z,100888.01
2023-05-20T10:46:35.365Z,100884.98
2023-05-20T10:49:24.094Z,100879.51
2023-05-20T10:51:54.914Z,100882.34
2023-05-20T10:54:22.552Z,100889.72
2023-05-20T10:56:53.090Z,100884.08
2023-05-20T10:59:21.080Z,100880.36
2023-05-20T11:01:47.978Z,100886.29
2023-05-20T11:08:28.964Z,100876.41
2023-05-20T11:10:57.282Z,100877.00
2023-05-20T11:21:43.606Z,100878.84
2023-05-20T11:24:10.382Z,100877.43
2023-05-20T11:26:37.034Z,100879.64
2023-05-20T11:29:04.185Z,100881.00
2023-05-20T11:31:32.025Z,100879.79
2023-05-20T11:34:00.950Z,100881.91
2023-05-20T11:36:28.437Z,100873.66
2023-05-20T11:38:58.702Z,100874.15
2023-05-20T11:41:26.069Z,100882.61
2023-05-20T11:43:59.174Z,100885.03
2023-05-20T11:46:27.233Z,100872.21
2023-05-20T11:48:54.362Z,100877.33
2023-05-20T11:51:27.398Z,100879.05
2023-05-20T11:54:00.274Z,100876.84
2023-05-20T11:56:33.956Z,100870.52
2023-05-20T11:59:00.878Z,100868.40
2023-05-20T12:01:30.839Z,100874.30
2023-05-20T12:03:57.672Z,100873.77
2023-05-20T12:06:24.423Z,100864.73
2023-05-20T12:08:51.378Z,100868.09
2023-05-20T12:11:18.307Z,100863.55
2023-05-20T12:13:44.964Z,100862.27
2023-05-20T12:16:11.572Z,100861.48
2023-05-20T12:18:38.310Z,100859.86
2023-05-20T12:21:05.265Z,100858.20
2023-05-20T12:23:33.515Z,100858.91
2023-05-20T12:26:00.468Z,100853.77
2023-05-20T12:28:29.617Z,100852.75
2023-05-20T12:30:56.431Z,100849.55
2023-05-20T12:33:23.441Z,100850.02
2023-05-20T12:35:50.051Z,100849.91
2023-05-20T12:38:16.645Z,100852.45
2023-05-20T12:40:43.482Z,100851.46
2023-05-20T12:43:10.111Z,100848.23
2023-05-20T12:45:36.850Z,100841.98
2023-05-20T12:48:04.128Z,100845.73
2023-05-20T12:50:31.558Z,100844.35
2023-05-20T12:52:58.231Z,100836.13
2023-05-20T12:55:24.792Z,100834.71
2023-05-20T12:57:51.986Z,100834.66
2023-05-20T13:00:18.654Z,100836.88
2023-05-20T13:02:45.709Z,100826.07
2023-05-20T13:05:12.785Z,100833.27
2023-05-20T13:07:40.053Z,100830.78
2023-05-20T13:10:07.379Z,100824.58
2023-05-20T13:12:34.571Z,100817.48
2023-05-20T13:15:01.272Z,100809.67
2023-05-20T13:17:28.177Z,100806.69
2023-05-20T13:19:55.018Z,100810.66
2023-05-20T13:22:22.367Z,100812.73
2023-05-20T13:24:49.075Z,100812.30
2023-05-20T13:27:15.893Z,100811.73
2023-05-20T13:29:42.980Z,100805.82
2023-05-20T13:32:09.752Z,100797.53
2023-05-20T13:34:38.011Z,100795.64
2023-05-20T13:37:05.369Z,100798.73
2023-05-20T13:39:32.165Z,100802.60
2023-05-20T13:41:58.929Z,100807.65
2023-05-20T13:44:25.516Z,100799.91
2023-05-20T13:46:52.207Z,100806.31
2023-05-20T13:49:19.993Z,100802.72
2023-05-20T13:51:46.784Z,100803.27
2023-05-20T13:54:13.333Z,100801.48
2023-05-20T13:56:39.898Z,100804.50
2023-05-20T13:59:06.531Z,100803.63
2023-05-20T14:01:33.705Z,100801.10
2023-05-20T14:04:00.403Z,100805.80
2023-05-20T14:06:28.706Z,100800.73
2023-05-20T14:08:55.862Z,100798.27
2023-05-20T14:11:22.540Z,100792.74
2023-05-20T14:13:49.153Z,100791.62
2023-05-20T14:16:15.867Z,100797.10
2023-05-20T14:18:42.661Z,100800.29
2023-05-20T14:21:09.218Z,100796.58
2023-05-20T14:23:36.125Z,100798.59
2023-05-20T14:26:02.684Z,100800.62
2023-05-20T14:28:30.527Z,100797.05
2023-05-20T14:30:57.101Z,100794.56
2023-05-20T14:33:23.642Z,100794.08
2023-05-20T14:35:50.541Z,100792.95
2023-05-20T14:38:18.170Z,100788.53
2023-05-20T14:40:44.674Z,100784.32
2023-05-20T14:43:11.269Z,100779.94
2023-05-20T14:45:38.030Z,100771.78
2023-05-20T14:48:05.036Z,100774.35
2023-05-20T14:50:31.900Z,100774.60
2023-05-20T14:52:58.833Z,100778.27
2023-05-20T14:55:25.391Z,100777.81
2023-05-20T14:57:52.231Z,100771.89
2023-05-20T15:00:18.999Z,100769.92
2023-05-20T15:02:46.289Z,100767.35
2023-05-20T15:05:13.574Z,100772.27
2023-05-20T15:07:40.947Z,100771.16
2023-05-20T15:10:08.249Z,100768.55
2023-05-20T15:12:35.207Z,100770.23
2023-05-20T15:15:02.595Z,100766.21
2023-05-20T15:17:31.146Z,100762.60
2023-05-20T15:19:57.908Z,100755.98
2023-05-20T15:22:25.588Z,100755.42
2023-05-20T15:24:52.200Z,100753.31
2023-05-20T15:27:19.293Z,100756.21
2023-05-20T15:29:46.125Z,100752.71
2023-05-20T15:32:12.942Z,100752.06
2023-05-20T15:34:40.077Z,100753.16
2023-05-20T15:37:06.738Z,100753.35
2023-05-20T15:39:36.306Z,100752.58
2023-05-20T15:42:03.427Z,100753.10
2023-05-20T15:44:30.251Z,100751.27
2023-05-20T15:46:57.206Z,100752.52
2023-05-20T15:49:26.665Z,100746.89
2023-05-20T15:52:02.925Z,100749.55
2023-05-20T15:54:30.477Z,100750.76
2023-05-20T15:56:57.600Z,100751.52
2023-05-20T15:59:24.681Z,100751.98
2023-05-20T16:01:54.328Z,100754.35
2023-05-20T16:04:21.299Z,100757.45
2023-05-20T16:06:48.227Z,100757.73
2023-05-20T16:09:15.285Z,100761.13
2023-05-20T16:11:42.080Z,100762.38
2023-05-20T16:14:08.694Z,100762.56
2023-05-20T16:16:36.180Z,100763.53
2023-05-20T16:19:03.535Z,100762.10
2023-05-20T16:21:31.118Z,100763.02
2023-05-20T16:23:57.966Z,100764.29
2023-05-20T16:26:25.508Z,100766.04
2023-05-20T16:28:52.267Z,100764.88
2023-05-20T16:31:19.018Z,100761.43
2023-05-20T16:33:45.642Z,100762.86
2023-05-20T16:36:12.315Z,100768.88
2023-05-20T16:38:39.006Z,100767.64
2023-05-20T16:41:06.016Z,100768.25
2023-05-20T16:43:33.774Z,100768.29
2023-05-20T16:46:00.512Z,100766.48
2023-05-20T16:48:27.092Z,100765.16
2023-05-20T16:50:54.008Z,100767.48
2023-05-20T16:53:20.853Z,100770.58
2023-05-20T16:55:47.376Z,100769.30
2023-05-20T16:58:14.220Z,100768.30
2023-05-20T17:00:41.029Z,100772.14
2023-05-20T17:03:07.912Z,100771.02
2023-05-20T17:05:35.856Z,100765.23
2023-05-20T17:08:02.820Z,100760.54
2023-05-20T17:10:30.329Z,100760.02
2023-05-20T17:12:56.940Z,100759.65
2023-05-20T17:15:24.772Z,100755.77
2023-05-20T17:17:51.347Z,100759.95
2023-05-20T17:20:18.323Z,100761.73
2023-05-20T17:22:48.337Z,100762.34
2023-05-20T17:25:16.327Z,100761.98
2023-05-20T17:27:43.477Z,100761.45
2023-05-20T17:30:10.888Z,100762.09
2023-05-20T17:32:38.316Z,100764.58
2023-05-20T17:35:06.118Z,100764.84
2023-05-20T17:37:32.860Z,100766.69
2023-05-20T17:39:59.874Z,100766.89
2023-05-20T17:42:26.425Z,100771.64
2023-05-20T17:44:53.051Z,100772.64
2023-05-20T17:47:20.123Z,100774.44
2023-05-20T17:49:46.690Z,100774.21
2023-05-20T17:52:13.230Z,100778.53
2023-05-20T17:54:39.880Z,100778.78
2023-05-20T17:57:06.543Z,100776.73
2023-05-20T17:59:36.164Z,100776.31
2023-05-20T18:02:05.430Z,100776.21
2023-05-20T18:04:32.041Z,100772.81
2023-05-20T18:06:58.685Z,100775.08
2023-05-20T18:09:25.332Z,100778.20
2023-05-20T18:11:53.131Z,100780.56
2023-05-20T18:14:22.207Z,100784.73
2023-05-20T18:16:53.962Z,100785.39
2023-05-20T18:19:20.622Z,100788.16
2023-05-20T18:21:47.360Z,100793.98
2023-05-20T18:24:15.942Z,100800.14
2023-05-20T18:26:42.732Z,100801.45
2023-05-20T18:29:11.729Z,100802.71
2023-05-20T18:31:38.644Z,100802.06
2023-05-20T18:34:05.545Z,100804.45
2023-05-20T18:36:33.218Z,100805.82
2023-05-20T18:39:00.053Z,100810.99
2023-05-20T18:41:43.185Z,100811.56
2023-05-20T18:44:14.646Z,100815.03
2023-05-20T18:46:41.739Z,100814.06
2023-05-20T18:49:10.008Z,100818.40
2023-05-20T18:53:09.147Z,100826.63
2023-05-20T18:55:35.816Z,100823.71
2023-05-20T18:58:02.599Z,100822.90
2023-05-20T19:00:29.464Z,100823.91
2023-05-20T19:02:59.022Z,100822.33
2023-05-20T19:05:26.083Z,100823.31
2023-05-20T19:07:52.838Z,100828.98
2023-05-20T19:10:21.495Z,100830.72
2023-05-20T19:12:48.459Z,100829.94
2023-05-20T19:15:16.084Z,100829.86
2023-05-20T19:17:42.754Z,100830.17
2023-05-20T19:20:09.956Z,100829.33
2023-05-20T19:22:37.463Z,100828.66
2023-05-20T19:25:04.988Z,100832.73
2023-05-20T19:27:31.738Z,100832.48
2023-05-20T19:29:58.754Z,100832.73
2023-05-20T19:32:25.426Z,100837.00
2023-05-20T19:34:52.093Z,100837.17
2023-05-20T19:37:19.616Z,100836.89
2023-05-20T19:39:47.218Z,100840.83
2023-05-20T19:42:13.855Z,100837.25
2023-05-20T19:44:40.908Z,100836.30
2023-05-20T19:47:07.543Z,100837.73
2023-05-20T19:49:34.526Z,100837.32
2023-05-20T19:52:01.217Z,100839.69
2023-05-20T19:54:28.085Z,100840.05
2023-05-20T19:56:54.768Z,100843.16
2023-05-20T19:59:21.304Z,100842.56
2023-05-20T20:01:48.002Z,100839.95
2023-05-20T20:04:17.976Z,100842.89
2023-05-20T20:06:44.785Z,100840.96
2023-05-20T20:09:11.834Z,100845.05
2023-05-20T20:11:38.493Z,100840.63
2023-05-20T20:14:05.531Z,100846.08
2023-05-20T20:16:32.980Z,100848.11
2023-05-20T20:18:59.646Z,100847.88
2023-05-20T20:21:26.269Z,100856.77
2023-05-20T20:23:53.003Z,100856.38
2023-05-20T20:26:22.861Z,100854.78
2023-05-20T20:28:51.654Z,100856.44
2023-05-20T20:31:18.306Z,100852.79
2023-05-20T20:33:46.771Z,100852.94
2023-05-20T20:36:13.596Z,100854.75
2023-05-20T20:38:45.917Z,100851.83
2023-05-20T20:41:15.446Z,100851.36
2023-05-20T20:43:44.209Z,100850.30
2023-05-20T20:46:14.272Z,100851.98
2023-05-20T20:48:45.056Z,100852.59
2023-05-20T20:51:15.213Z,100848.08
2023-05-20T20:53:42.037Z,100843.20
2023-05-20T20:56:09.188Z,100844.06
2023-05-20T20:58:37.338Z,100846.45
2023-05-20T21:01:04.991Z,100850.84
2023-05-20T21:03:36.347Z,100848.93
2023-05-20T21:06:03.048Z,100847.42
2023-05-20T21:08:31.353Z,100846.02
2023-05-20T21:10:59.089Z,100847.53
2023-05-20T21:13:26.933Z,100849.05
2023-05-20T21:15:54.374Z,100851.98
2023-05-20T21:18:21.261Z,100849.48
2023-05-20T21:20:51.747Z,100853.33
2023-05-20T21:23:19.639Z,100849.81
2023-05-20T21:25:46.510Z,100854.50
2023-05-20T21:28:14.104Z,100852.97
2023-05-20T21:30:40.904Z,100854.36
2023-05-20T21:33:08.215Z,100857.58
2023-05-20T21:35:35.711Z,100854.69
2023-05-20T21:38:02.437Z,100853.17
2023-05-20T21:40:29.167Z,100850.27
2023-05-20T21:42:55.910Z,100852.83
2023-05-20T21:45:22.649Z,100852.83
2023-05-20T21:47:49.297Z,100853.20
2023-05-20T21:50:15.995Z,100855.58
2023-05-20T21:52:43.069Z,100858.75
2023-05-20T21:55:09.935Z,100858.55
2023-05-20T21:57:37.340Z,100860.60
2023-05-20T22:00:14.724Z,100867.77
2023-05-20T22:02:41.823Z,100866.02
2023-05-20T22:05:08.980Z,100863.64
2023-05-20T22:07:35.870Z,100863.05
2023-05-20T22:10:02.949Z,100863.70
2023-05-20T22:12:30.371Z,100861.84
2023-05-20T22:14:56.970Z,100860.11
2023-05-20T22:17:24.314Z,100856.58
2023-05-20T22:19:51.153Z,100853.64
2023-05-20T22:22:17.700Z,100857.21
2023-05-20T22:24:44.437Z,100861.23
2023-05-20T22:27:13.265Z,100863.09
2023-05-20T22:29:42.784Z,100857.58
2023-05-20T22:32:09.491Z,100854.42
2023-05-20T22:34:37.895Z,100851.27
2023-05-20T22:37:06.481Z,100845.58
2023-05-20T22:39:33.328Z,100845.05
2023-05-20T22:41:59.932Z,100848.67
2023-05-20T22:44:26.635Z,100845.55
2023-05-20T22:46:53.943Z,100841.64
2023-05-20T22:49:23.031Z,100839.82
2023-05-20T22:51:52.025Z,100835.91
2023-05-20T22:54:18.667Z,100840.87
2023-05-20T22:56:45.253Z,100841.36
2023-05-20T22:59:12.036Z,100841.46
2023-05-20T23:01:38.852Z,100840.76
2023-05-20T23:04:05.806Z,100836.66
2023-05-20T23:06:32.853Z,100833.94
2023-05-20T23:08:59.681Z,100836.50
2023-05-20T23:11:26.547Z,100830.27
2023-05-20T23:13:53.547Z,100828.96
2023-05-20T23:16:21.081Z,100823.23
2023-05-20T23:18:47.938Z,100822.02
2023-05-20T23:21:14.805Z,100815.18
2023-05-20T23:23:41.519Z,100815.23
2023-05-20T23:26:08.321Z,100814.84
2023-05-20T23:28:35.215Z,100815.73
2023-05-20T23:31:02.024Z,100813.20
2023-05-20T23:33:29.907Z,100813.90
2023-05-20T23:35:56.667Z,100808.61
2023-05-20T23:38:23.728Z,100808.33
2023-05-20T23:40:50.433Z,100806.95
2023-05-20T23:43:17.032Z,100809.84
2023-05-20T23:45:44.032Z,100807.89
2023-05-20T23:48:12.556Z,100808.05
2023-05-20T23:50:39.979Z,100803.77
2023-05-20T23:53:06.677Z,100801.02
2023-05-20T23:55:34.405Z,100797.60
2023-05-20T23:58:01.289Z,100798.56
